sensor_id;sensor_type;location;lat;lon;timestamp;pressure;altitude;pressure_sealevel;temperature;humidity
27643;BME280;15053;48.618;10.024;2022-12-24T00:01:35;93693.66;;;10.29;84.55
27643;BME280;15053;48.618;10.024;2022-12-24T00:04:02;93689.94;;;10.22;83.43
27643;BME280;15053;48.618;10.024;2022-12-24T00:06:28;93679.09;;;10.28;83.50
27643;BME280;15053;48.618;10.024;2022-12-24T00:08:55;93703.88;;;10.26;83.74
27643;BME280;15053;48.618;10.024;2022-12-24T00:11:21;93706.47;;;10.26;83.25
27643;BME280;15053;48.618;10.024;2022-12-24T00:13:48;93717.19;;;10.24;82.72
27643;BME280;15053;48.618;10.024;2022-12-24T00:16:14;93699.44;;;10.26;82.99
27643;BME280;15053;48.618;10.024;2022-12-24T00:18:41;93706.00;;;10.24;82.84
27643;BME280;15053;48.618;10.024;2022-12-24T00:21:13;93723.75;;;10.22;83.14
27643;BME280;15053;48.618;10.024;2022-12-24T00:23:40;93731.09;;;10.20;83.49
27643;BME280;15053;48.618;10.024;2022-12-24T00:26:07;93722.13;;;10.12;84.13
27643;BME280;15053;48.618;10.024;2022-12-24T00:28:33;93730.75;;;10.13;84.00
27643;BME280;15053;48.618;10.024;2022-12-24T00:31:06;93724.53;;;10.08;84.15
27643;BME280;15053;48.618;10.024;2022-12-24T00:33:33;93727.00;;;10.05;84.61
27643;BME280;15053;48.618;10.024;2022-12-24T00:36:00;93729.41;;;10.01;84.04
27643;BME280;15053;48.618;10.024;2022-12-24T00:38:26;93727.09;;;10.00;83.96
27643;BME280;15053;48.618;10.024;2022-12-24T00:41:00;93720.06;;;10.00;84.11
27643;BME280;15053;48.618;10.024;2022-12-24T00:43:28;93730.78;;;9.99;84.55
27643;BME280;15053;48.618;10.024;2022-12-24T00:45:55;93730.78;;;9.99;84.67
27643;BME280;15053;48.618;10.024;2022-12-24T00:48:22;93736.56;;;9.96;84.34
27643;BME280;15053;48.618;10.024;2022-12-24T00:50:49;93733.50;;;9.94;84.42
27643;BME280;15053;48.618;10.024;2022-12-24T00:53:17;93738.19;;;9.92;84.91
27643;BME280;15053;48.618;10.024;2022-12-24T00:55:44;93742.94;;;9.90;84.60
27643;BME280;15053;48.618;10.024;2022-12-24T00:58:10;93741.38;;;9.89;84.51
27643;BME280;15053;48.618;10.024;2022-12-24T01:00:36;93737.84;;;9.85;84.59
27643;BME280;15053;48.618;10.024;2022-12-24T01:03:03;93757.28;;;9.87;84.09
27643;BME280;15053;48.618;10.024;2022-12-24T01:05:30;93753.66;;;9.88;84.01
27643;BME280;15053;48.618;10.024;2022-12-24T01:07:56;93752.88;;;9.88;83.89
27643;BME280;15053;48.618;10.024;2022-12-24T01:10:22;93759.78;;;9.92;82.87
27643;BME280;15053;48.618;10.024;2022-12-24T01:12:49;93759.50;;;9.94;82.69
27643;BME280;15053;48.618;10.024;2022-12-24T01:15:15;93771.44;;;9.95;82.54
27643;BME280;15053;48.618;10.024;2022-12-24T01:17:42;93775.56;;;9.96;82.63
27643;BME280;15053;48.618;10.024;2022-12-24T01:20:13;93798.69;;;9.97;81.90
27643;BME280;15053;48.618;10.024;2022-12-24T01:22:40;93809.59;;;9.99;80.96
27643;BME280;15053;48.618;10.024;2022-12-24T01:25:07;93797.03;;;10.01;80.96
27643;BME280;15053;48.618;10.024;2022-12-24T01:27:34;93785.41;;;9.99;80.65
27643;BME280;15053;48.618;10.024;2022-12-24T01:30:00;93800.69;;;10.00;81.32
27643;BME280;15053;48.618;10.024;2022-12-24T01:32:27;93799.91;;;10.00;81.47
27643;BME280;15053;48.618;10.024;2022-12-24T01:34:53;93804.97;;;9.96;81.08
27643;BME280;15053;48.618;10.024;2022-12-24T01:37:20;93805.53;;;9.93;80.98
27643;BME280;15053;48.618;10.024;2022-12-24T01:39:46;93805.06;;;9.91;80.96
27643;BME280;15053;48.618;10.024;2022-12-24T01:42:18;93817.47;;;9.94;80.45
27643;BME280;15053;48.618;10.024;2022-12-24T01:45:39;93827.59;;;9.96;80.58
27643;BME280;15053;48.618;10.024;2022-12-24T01:51:25;93829.81;;;10.02;79.99
27643;BME280;15053;48.618;10.024;2022-12-24T01:54:03;93821.88;;;10.07;79.80
27643;BME280;15053;48.618;10.024;2022-12-24T01:56:31;93815.59;;;10.08;80.18
27643;BME280;15053;48.618;10.024;2022-12-24T01:59:03;93811.47;;;10.07;80.18
27643;BME280;15053;48.618;10.024;2022-12-24T02:01:31;93810.72;;;10.07;80.67
27643;BME280;15053;48.618;10.024;2022-12-24T02:03:58;93816.09;;;10.11;80.43
27643;BME280;15053;48.618;10.024;2022-12-24T02:06:24;93827.56;;;10.09;80.71
27643;BME280;15053;48.618;10.024;2022-12-24T02:08:51;93831.72;;;10.11;80.70
27643;BME280;15053;48.618;10.024;2022-12-24T02:11:20;93840.25;;;10.11;81.01
27643;BME280;15053;48.618;10.024;2022-12-24T02:13:54;93838.25;;;10.08;81.30
27643;BME280;15053;48.618;10.024;2022-12-24T02:27:43;93854.94;;;10.07;80.47
27643;BME280;15053;48.618;10.024;2022-12-24T02:30:21;93856.97;;;10.10;80.53
27643;BME280;15053;48.618;10.024;2022-12-24T02:32:54;93848.06;;;10.11;80.95
27643;BME280;15053;48.618;10.024;2022-12-24T02:35:45;93853.84;;;10.08;81.53
27643;BME280;15053;48.618;10.024;2022-12-24T02:38:54;93846.66;;;10.05;81.22
27643;BME280;15053;48.618;10.024;2022-12-24T02:41:29;93857.66;;;10.02;81.62
27643;BME280;15053;48.618;10.024;2022-12-24T02:44:19;93861.88;;;9.98;81.29
27643;BME280;15053;48.618;10.024;2022-12-24T02:46:48;93875.97;;;9.97;81.33
27643;BME280;15053;48.618;10.024;2022-12-24T02:49:15;93881.75;;;9.94;81.72
27643;BME280;15053;48.618;10.024;2022-12-24T02:51:41;93883.28;;;9.95;81.31
27643;BME280;15053;48.618;10.024;2022-12-24T02:54:08;93885.09;;;9.94;81.54
27643;BME280;15053;48.618;10.024;2022-12-24T02:59:33;93880.66;;;9.95;81.98
27643;BME280;15053;48.618;10.024;2022-12-24T03:02:14;93890.59;;;9.93;83.08
27643;BME280;15053;48.618;10.024;2022-12-24T03:04:56;93895.91;;;9.88;83.69
27643;BME280;15053;48.618;10.024;2022-12-24T03:07:28;93910.28;;;9.85;84.33
27643;BME280;15053;48.618;10.024;2022-12-24T03:10:22;93931.19;;;9.80;85.18
27643;BME280;15053;48.618;10.024;2022-12-24T03:12:56;93925.31;;;9.75;86.06
27643;BME280;15053;48.618;10.024;2022-12-24T03:15:26;93938.09;;;9.71;86.96
27643;BME280;15053;48.618;10.024;2022-12-24T03:17:56;93933.78;;;9.67;87.59
27643;BME280;15053;48.618;10.024;2022-12-24T03:20:44;93931.75;;;9.64;88.60
27643;BME280;15053;48.618;10.024;2022-12-24T03:23:11;93919.59;;;9.59;89.10
27643;BME280;15053;48.618;10.024;2022-12-24T03:25:40;93917.88;;;9.55;89.53
27643;BME280;15053;48.618;10.024;2022-12-24T03:28:08;93933.56;;;9.49;89.99
27643;BME280;15053;48.618;10.024;2022-12-24T03:30:39;93933.09;;;9.47;90.31
27643;BME280;15053;48.618;10.024;2022-12-24T03:33:06;93938.06;;;9.44;90.73
27643;BME280;15053;48.618;10.024;2022-12-24T03:35:32;93949.03;;;9.41;91.28
27643;BME280;15053;48.618;10.024;2022-12-24T03:37:59;93947.78;;;9.38;91.63
27643;BME280;15053;48.618;10.024;2022-12-24T03:40:25;93947.31;;;9.36;91.96
27643;BME280;15053;48.618;10.024;2022-12-24T03:42:52;93968.66;;;9.33;92.46
27643;BME280;15053;48.618;10.024;2022-12-24T03:45:18;93987.44;;;9.30;93.11
27643;BME280;15053;48.618;10.024;2022-12-24T03:47:45;93973.44;;;9.26;93.24
27643;BME280;15053;48.618;10.024;2022-12-24T03:50:11;93981.25;;;9.26;93.54
27643;BME280;15053;48.618;10.024;2022-12-24T03:52:38;93967.00;;;9.24;93.73
27643;BME280;15053;48.618;10.024;2022-12-24T03:55:05;93953.78;;;9.20;94.08
27643;BME280;15053;48.618;10.024;2022-12-24T03:57:31;93967.09;;;9.19;94.32
27643;BME280;15053;48.618;10.024;2022-12-24T03:59:58;93973.16;;;9.14;94.88
27643;BME280;15053;48.618;10.024;2022-12-24T04:02:24;93982.28;;;9.12;95.15
27643;BME280;15053;48.618;10.024;2022-12-24T04:04:51;93994.75;;;9.10;95.23
27643;BME280;15053;48.618;10.024;2022-12-24T04:07:17;93990.63;;;9.09;95.30
27643;BME280;15053;48.618;10.024;2022-12-24T04:09:44;93997.16;;;9.06;95.71
27643;BME280;15053;48.618;10.024;2022-12-24T04:12:10;93986.25;;;9.04;95.74
27643;BME280;15053;48.618;10.024;2022-12-24T04:14:37;93995.13;;;9.03;95.84
27643;BME280;15053;48.618;10.024;2022-12-24T04:17:03;93998.78;;;9.02;95.76
27643;BME280;15053;48.618;10.024;2022-12-24T04:19:30;94005.59;;;8.98;95.75
27643;BME280;15053;48.618;10.024;2022-12-24T04:21:56;94003.28;;;8.97;96.08
27643;BME280;15053;48.618;10.024;2022-12-24T04:24:23;94000.41;;;8.98;95.73
27643;BME280;15053;48.618;10.024;2022-12-24T04:26:49;93997.81;;;8.98;95.82
27643;BME280;15053;48.618;10.024;2022-12-24T04:29:16;94002.72;;;9.00;95.45
27643;BME280;15053;48.618;10.024;2022-12-24T04:31:42;94011.28;;;9.00;95.35
27643;BME280;15053;48.618;10.024;2022-12-24T04:34:08;94010.50;;;9.00;94.42
27643;BME280;15053;48.618;10.024;2022-12-24T04:36:35;93999.34;;;8.99;94.53
27643;BME280;15053;48.618;10.024;2022-12-24T04:39:02;93997.81;;;8.98;94.49
27643;BME280;15053;48.618;10.024;2022-12-24T04:41:28;93988.47;;;8.97;93.66
27643;BME280;15053;48.618;10.024;2022-12-24T04:43:55;93988.94;;;8.99;94.12
27643;BME280;15053;48.618;10.024;2022-12-24T04:46:24;94000.88;;;9.00;93.77
27643;BME280;15053;48.618;10.024;2022-12-24T04:48:52;93985.00;;;9.02;93.32
27643;BME280;15053;48.618;10.024;2022-12-24T04:51:19;93986.84;;;9.01;93.02
27643;BME280;15053;48.618;10.024;2022-12-24T04:53:46;93986.84;;;9.01;93.15
27643;BME280;15053;48.618;10.024;2022-12-24T04:56:15;93993.59;;;9.02;92.93
27643;BME280;15053;48.618;10.024;2022-12-24T04:58:42;93991.28;;;9.01;92.86
27643;BME280;15053;48.618;10.024;2022-12-24T05:01:12;93993.78;;;9.06;92.80
27643;BME280;15053;48.618;10.024;2022-12-24T05:03:39;93982.41;;;9.02;92.87
27643;BME280;15053;48.618;10.024;2022-12-24T05:06:08;93995.53;;;9.10;92.55
27643;BME280;15053;48.618;10.024;2022-12-24T05:08:36;93997.09;;;9.11;92.62
27643;BME280;15053;48.618;10.024;2022-12-24T05:11:04;94000.72;;;9.10;93.11
27643;BME280;15053;48.618;10.024;2022-12-24T05:13:31;94001.50;;;9.11;92.71
27643;BME280;15053;48.618;10.024;2022-12-24T05:16:12;94003.88;;;9.07;92.97
27643;BME280;15053;48.618;10.024;2022-12-24T05:18:39;94006.47;;;9.07;93.20
27643;BME280;15053;48.618;10.024;2022-12-24T05:21:08;94011.69;;;9.07;93.31
27643;BME280;15053;48.618;10.024;2022-12-24T05:23:36;94010.16;;;9.06;93.69
27643;BME280;15053;48.618;10.024;2022-12-24T05:26:34;94009.38;;;9.06;93.79
27643;BME280;15053;48.618;10.024;2022-12-24T05:29:05;94007.03;;;9.04;93.71
27643;BME280;15053;48.618;10.024;2022-12-24T05:31:33;94007.59;;;9.01;94.20
27643;BME280;15053;48.618;10.024;2022-12-24T05:34:00;94016.97;;;9.02;94.07
27643;BME280;15053;48.618;10.024;2022-12-24T05:36:28;94017.03;;;8.97;94.32
27643;BME280;15053;48.618;10.024;2022-12-24T05:38:55;94024.47;;;9.04;94.39
27643;BME280;15053;48.618;10.024;2022-12-24T05:41:22;94015.41;;;9.01;94.59
27643;BME280;15053;48.618;10.024;2022-12-24T05:43:49;94030.16;;;9.06;94.34
27643;BME280;15053;48.618;10.024;2022-12-24T05:46:18;94018.22;;;9.05;94.67
27643;BME280;15053;48.618;10.024;2022-12-24T05:48:45;94029.38;;;9.05;94.71
27643;BME280;15053;48.618;10.024;2022-12-24T05:51:13;94024.19;;;9.05;94.68
27643;BME280;15053;48.618;10.024;2022-12-24T05:53:40;94024.19;;;9.05;94.28
27643;BME280;15053;48.618;10.024;2022-12-24T05:56:09;94006.84;;;9.01;94.01
27643;BME280;15053;48.618;10.024;2022-12-24T05:58:36;94013.41;;;8.98;93.85
27643;BME280;15053;48.618;10.024;2022-12-24T06:01:04;94017.50;;;8.99;93.71
27643;BME280;15053;48.618;10.024;2022-12-24T06:03:32;94017.31;;;8.96;93.24
27643;BME280;15053;48.618;10.024;2022-12-24T06:06:07;94008.25;;;8.93;93.38
27643;BME280;15053;48.618;10.024;2022-12-24T06:08:35;94016.41;;;8.86;93.40
27643;BME280;15053;48.618;10.024;2022-12-24T06:11:05;94008.19;;;8.79;93.18
27643;BME280;15053;48.618;10.024;2022-12-24T06:13:32;94012.91;;;8.77;93.08
27643;BME280;15053;48.618;10.024;2022-12-24T06:16:01;94018.66;;;8.74;93.39
27643;BME280;15053;48.618;10.024;2022-12-24T06:18:30;94018.44;;;8.71;93.36
27643;BME280;15053;48.618;10.024;2022-12-24T06:20:57;94030.16;;;8.68;93.15
27643;BME280;15053;48.618;10.024;2022-12-24T06:23:24;94017.53;;;8.62;92.90
27643;BME280;15053;48.618;10.024;2022-12-24T06:25:51;94031.84;;;8.59;93.01
27643;BME280;15053;48.618;10.024;2022-12-24T06:28:17;94042.47;;;8.58;92.79
27643;BME280;15053;48.618;10.024;2022-12-24T06:30:48;94044.09;;;8.54;92.65
27643;BME280;15053;48.618;10.024;2022-12-24T06:33:15;94040.25;;;8.51;92.29
27643;BME280;15053;48.618;10.024;2022-12-24T06:35:44;94018.81;;;8.41;91.99
27643;BME280;15053;48.618;10.024;2022-12-24T06:38:11;94018.81;;;8.41;91.84
27643;BME280;15053;48.618;10.024;2022-12-24T06:40:38;94037.97;;;8.45;91.77
27643;BME280;15053;48.618;10.024;2022-12-24T06:43:05;94035.38;;;8.45;91.60
27643;BME280;15053;48.618;10.024;2022-12-24T06:45:31;94037.97;;;8.45;91.35
27643;BME280;15053;48.618;10.024;2022-12-24T06:47:59;94028.72;;;8.39;91.17
27643;BME280;15053;48.618;10.024;2022-12-24T06:50:26;94039.03;;;8.44;91.23
27643;BME280;15053;48.618;10.024;2022-12-24T06:52:52;94044.72;;;8.46;90.56
27643;BME280;15053;48.618;10.024;2022-12-24T06:55:19;94052.22;;;8.47;90.58
27643;BME280;15053;48.618;10.024;2022-12-24T06:57:45;94049.38;;;8.49;90.06
27643;BME280;15053;48.618;10.024;2022-12-24T07:00:12;94053.47;;;8.50;90.16
27643;BME280;15053;48.618;10.024;2022-12-24T07:02:40;94057.09;;;8.54;89.56
27643;BME280;15053;48.618;10.024;2022-12-24T07:05:07;94070.81;;;8.54;89.35
27643;BME280;15053;48.618;10.024;2022-12-24T07:07:37;94080.16;;;8.55;89.20
27643;BME280;15053;48.618;10.024;2022-12-24T07:10:04;94080.16;;;8.55;89.03
27643;BME280;15053;48.618;10.024;2022-12-24T07:12:31;94088.16;;;8.59;88.66
27643;BME280;15053;48.618;10.024;2022-12-24T07:14:58;94094.31;;;8.63;88.61
27643;BME280;15053;48.618;10.024;2022-12-24T07:17:24;94088.88;;;8.64;88.10
27643;BME280;15053;48.618;10.024;2022-12-24T07:19:51;94093.22;;;8.69;88.11
27643;BME280;15053;48.618;10.024;2022-12-24T07:22:18;94094.78;;;8.70;87.77
27643;BME280;15053;48.618;10.024;2022-12-24T07:24:44;94087.53;;;8.67;87.99
27643;BME280;15053;48.618;10.024;2022-12-24T07:27:11;94089.81;;;8.73;87.43
27643;BME280;15053;48.618;10.024;2022-12-24T07:29:37;94104.06;;;8.76;87.58
27643;BME280;15053;48.618;10.024;2022-12-24T07:32:04;94110.00;;;8.76;87.30
27643;BME280;15053;48.618;10.024;2022-12-24T07:34:30;94104.06;;;8.76;87.07
27643;BME280;15053;48.618;10.024;2022-12-24T07:36:57;94110.78;;;8.77;87.13
27643;BME280;15053;48.618;10.024;2022-12-24T07:39:23;94109.50;;;8.74;86.99
27643;BME280;15053;48.618;10.024;2022-12-24T07:41:50;94131.00;;;8.80;86.89
27643;BME280;15053;48.618;10.024;2022-12-24T07:44:18;94139.81;;;8.79;86.43
27643;BME280;15053;48.618;10.024;2022-12-24T07:46:44;94140.06;;;8.82;86.78
27643;BME280;15053;48.618;10.024;2022-12-24T07:49:11;94137.19;;;8.84;86.85
27643;BME280;15053;48.618;10.024;2022-12-24T07:51:38;94161.81;;;8.86;86.29
27643;BME280;15053;48.618;10.024;2022-12-24T07:54:04;94156.63;;;8.86;86.66
27643;BME280;15053;48.618;10.024;2022-12-24T07:56:31;94152.97;;;8.87;86.50
27643;BME280;15053;48.618;10.024;2022-12-24T07:58:58;94157.41;;;8.87;86.38
27643;BME280;15053;48.618;10.024;2022-12-24T08:01:24;94154.03;;;8.86;86.47
27643;BME280;15053;48.618;10.024;2022-12-24T08:03:51;94155.31;;;8.89;86.69
27643;BME280;15053;48.618;10.024;2022-12-24T08:06:20;94161.06;;;8.86;86.45
27643;BME280;15053;48.618;10.024;2022-12-24T08:08:47;94165.69;;;8.89;86.56
27643;BME280;15053;48.618;10.024;2022-12-24T08:11:15;94168.00;;;8.90;86.20
27643;BME280;15053;48.618;10.024;2022-12-24T08:13:41;94171.09;;;8.93;86.47
27643;BME280;15053;48.618;10.024;2022-12-24T08:16:08;94185.63;;;8.94;86.24
27643;BME280;15053;48.618;10.024;2022-12-24T08:18:34;94177.03;;;8.98;86.07
27643;BME280;15053;48.618;10.024;2022-12-24T08:21:01;94188.94;;;8.99;85.65
27643;BME280;15053;48.618;10.024;2022-12-24T08:23:27;94192.31;;;9.00;85.94
27643;BME280;15053;48.618;10.024;2022-12-24T08:25:53;94196.19;;;9.02;85.89
27643;BME280;15053;48.618;10.024;2022-12-24T08:28:20;94188.38;;;9.02;85.84
27643;BME280;15053;48.618;10.024;2022-12-24T08:30:48;94205.53;;;9.03;86.02
27643;BME280;15053;48.618;10.024;2022-12-24T08:33:15;94211.22;;;9.05;86.09
27643;BME280;15053;48.618;10.024;2022-12-24T08:35:49;94199.19;;;9.09;86.47
27643;BME280;15053;48.618;10.024;2022-12-24T08:38:16;94186.72;;;9.11;85.88
27643;BME280;15053;48.618;10.024;2022-12-24T08:40:43;94184.06;;;9.16;85.80
27643;BME280;15053;48.618;10.024;2022-12-24T08:43:09;94192.06;;;9.20;85.81
27643;BME280;15053;48.618;10.024;2022-12-24T08:45:37;94194.38;;;9.21;85.28
27643;BME280;15053;48.618;10.024;2022-12-24T08:48:07;94195.38;;;9.25;85.22
27643;BME280;15053;48.618;10.024;2022-12-24T08:50:37;94209.34;;;9.29;84.84
27643;BME280;15053;48.618;10.024;2022-12-24T08:53:04;94208.00;;;9.32;84.78
27643;BME280;15053;48.618;10.024;2022-12-24T08:55:31;94213.44;;;9.35;84.65
27643;BME280;15053;48.618;10.024;2022-12-24T08:57:58;94209.78;;;9.36;84.02
27643;BME280;15053;48.618;10.024;2022-12-24T09:00:25;94213.91;;;9.37;82.97
27643;BME280;15053;48.618;10.024;2022-12-24T09:02:51;94231.06;;;9.38;82.85
27643;BME280;15053;48.618;10.024;2022-12-24T09:05:18;94223.84;;;9.35;82.93
27643;BME280;15053;48.618;10.024;2022-12-24T09:07:44;94230.28;;;9.38;82.50
27643;BME280;15053;48.618;10.024;2022-12-24T09:10:11;94227.22;;;9.36;82.52
27643;BME280;15053;48.618;10.024;2022-12-24T09:12:37;94231.06;;;9.38;82.37
27643;BME280;15053;48.618;10.024;2022-12-24T09:15:04;94228.75;;;9.37;81.95
27643;BME280;15053;48.618;10.024;2022-12-24T09:17:34;94247.63;;;9.42;81.13
27643;BME280;15053;48.618;10.024;2022-12-24T09:20:02;94241.09;;;9.45;80.80
27643;BME280;15053;48.618;10.024;2022-12-24T09:22:29;94245.00;;;9.47;80.45
27643;BME280;15053;48.618;10.024;2022-12-24T09:24:55;94245.97;;;9.52;80.62
27643;BME280;15053;48.618;10.024;2022-12-24T09:27:22;94248.03;;;9.55;80.38
27643;BME280;15053;48.618;10.024;2022-12-24T09:29:48;94255.25;;;9.58;80.71
27643;BME280;15053;48.618;10.024;2022-12-24T09:32:15;94261.94;;;9.64;80.65
27643;BME280;15053;48.618;10.024;2022-12-24T09:34:41;94253.00;;;9.70;80.48
27643;BME280;15053;48.618;10.024;2022-12-24T09:37:08;94269.97;;;9.86;80.41
27643;BME280;15053;48.618;10.024;2022-12-24T09:39:34;94269.25;;;9.99;80.20
27643;BME280;15053;48.618;10.024;2022-12-24T09:44:56;94262.72;;;10.20;78.95
27643;BME280;15053;48.618;10.024;2022-12-24T09:47:28;94260.47;;;10.32;78.71
27643;BME280;15053;48.618;10.024;2022-12-24T09:50:00;94262.03;;;10.47;77.78
27643;BME280;15053;48.618;10.024;2022-12-24T09:52:35;94267.22;;;10.65;78.06
27643;BME280;15053;48.618;10.024;2022-12-24T09:57:50;94266.00;;;10.90;76.51
27643;BME280;15053;48.618;10.024;2022-12-24T10:00:36;94255.97;;;11.11;75.88
27643;BME280;15053;48.618;10.024;2022-12-24T10:03:29;94270.75;;;11.29;74.30
27643;BME280;15053;48.618;10.024;2022-12-24T10:08:55;94252.31;;;11.39;73.37
27643;BME280;15053;48.618;10.024;2022-12-24T10:11:29;94246.88;;;11.49;72.07
27643;BME280;15053;48.618;10.024;2022-12-24T10:19:36;94246.56;;;12.14;72.01
27643;BME280;15053;48.618;10.024;2022-12-24T10:22:22;94254.09;;;12.15;71.68
27643;BME280;15053;48.618;10.024;2022-12-24T10:25:00;94258.72;;;12.18;71.43
27643;BME280;15053;48.618;10.024;2022-12-24T10:27:34;94256.22;;;12.13;70.59
27643;BME280;15053;48.618;10.024;2022-12-24T10:30:16;94264.59;;;12.02;70.41
27643;BME280;15053;48.618;10.024;2022-12-24T10:32:46;94260.19;;;11.89;70.57
27643;BME280;15053;48.618;10.024;2022-12-24T10:37:42;94255.34;;;11.68;71.51
27643;BME280;15053;48.618;10.024;2022-12-24T10:40:23;94261.38;;;11.55;72.03
27643;BME280;15053;48.618;10.024;2022-12-24T10:42:51;94260.59;;;11.41;72.53
27643;BME280;15053;48.618;10.024;2022-12-24T10:45:20;94262.22;;;11.37;73.11
27643;BME280;15053;48.618;10.024;2022-12-24T10:47:54;94268.53;;;11.36;73.29
27643;BME280;15053;48.618;10.024;2022-12-24T10:50:34;94279.53;;;11.33;72.64
27643;BME280;15053;48.618;10.024;2022-12-24T10:53:22;94278.38;;;11.39;73.39
27643;BME280;15053;48.618;10.024;2022-12-24T10:55:49;94274.00;;;11.48;72.95
27643;BME280;15053;48.618;10.024;2022-12-24T10:58:18;94275.56;;;11.49;72.75
27643;BME280;15053;48.618;10.024;2022-12-24T11:00:51;94274.31;;;11.47;72.56
27643;BME280;15053;48.618;10.024;2022-12-24T11:03:23;94266.09;;;11.53;72.57
27643;BME280;15053;48.618;10.024;2022-12-24T11:06:14;94261.34;;;11.82;72.71
27643;BME280;15053;48.618;10.024;2022-12-24T11:08:44;94270.66;;;12.11;71.74
27643;BME280;15053;48.618;10.024;2022-12-24T11:11:12;94268.06;;;12.33;71.08
27643;BME280;15053;48.618;10.024;2022-12-24T11:13:45;94264.53;;;12.60;69.96
27643;BME280;15053;48.618;10.024;2022-12-24T11:16:32;94267.59;;;12.84;68.09
27643;BME280;15053;48.618;10.024;2022-12-24T11:19:02;94266.91;;;13.00;67.20
27643;BME280;15053;48.618;10.024;2022-12-24T11:21:33;94273.09;;;13.05;66.44
27643;BME280;15053;48.618;10.024;2022-12-24T11:26:41;94269.53;;;13.31;65.80
27643;BME280;15053;48.618;10.024;2022-12-24T11:29:18;94249.97;;;13.29;64.55
27643;BME280;15053;48.618;10.024;2022-12-24T11:31:46;94243.03;;;13.16;64.66
27643;BME280;15053;48.618;10.024;2022-12-24T11:36:53;94266.63;;;12.71;65.46
27643;BME280;15053;48.618;10.024;2022-12-24T11:39:23;94262.88;;;12.41;66.44
27643;BME280;15053;48.618;10.024;2022-12-24T11:41:52;94269.16;;;12.18;66.63
27643;BME280;15053;48.618;10.024;2022-12-24T11:44:26;94264.88;;;12.00;68.36
27643;BME280;15053;48.618;10.024;2022-12-24T11:46:54;94259.50;;;11.83;68.77
27643;BME280;15053;48.618;10.024;2022-12-24T11:49:32;94257.09;;;11.73;68.78
27643;BME280;15053;48.618;10.024;2022-12-24T11:54:59;94268.72;;;11.53;70.22
27643;BME280;15053;48.618;10.024;2022-12-24T11:57:46;94264.56;;;11.52;71.12
27643;BME280;15053;48.618;10.024;2022-12-24T12:00:15;94266.69;;;11.50;70.85
27643;BME280;15053;48.618;10.024;2022-12-24T12:02:45;94252.56;;;11.51;71.33
27643;BME280;15053;48.618;10.024;2022-12-24T12:05:22;94257.09;;;11.59;71.44
27643;BME280;15053;48.618;10.024;2022-12-24T12:08:02;94263.28;;;11.63;71.70
27643;BME280;15053;48.618;10.024;2022-12-24T12:10:36;94255.06;;;11.83;72.36
27643;BME280;15053;48.618;10.024;2022-12-24T12:13:10;94262.97;;;12.14;71.52
27643;BME280;15053;48.618;10.024;2022-12-24T12:15:47;94269.34;;;12.22;70.59
27643;BME280;15053;48.618;10.024;2022-12-24T12:18:19;94269.22;;;12.05;70.17
27643;BME280;15053;48.618;10.024;2022-12-24T12:20:50;94265.50;;;11.83;70.26
27643;BME280;15053;48.618;10.024;2022-12-24T12:23:26;94259.44;;;11.74;69.67
27643;BME280;15053;48.618;10.024;2022-12-24T12:26:00;94258.78;;;11.69;68.72
27643;BME280;15053;48.618;10.024;2022-12-24T12:28:35;94267.72;;;11.63;68.47
27643;BME280;15053;48.618;10.024;2022-12-24T12:31:33;94264.44;;;11.57;68.20
27643;BME280;15053;48.618;10.024;2022-12-24T12:34:13;94255.38;;;11.55;68.60
27643;BME280;15053;48.618;10.024;2022-12-24T12:36:46;94263.66;;;11.57;69.55
27643;BME280;15053;48.618;10.024;2022-12-24T12:39:14;94258.97;;;11.45;70.46
27643;BME280;15053;48.618;10.024;2022-12-24T12:49:59;94269.38;;;11.18;73.27
27643;BME280;15053;48.618;10.024;2022-12-24T12:55:22;94271.03;;;11.14;73.26
27643;BME280;15053;48.618;10.024;2022-12-24T12:57:56;94275.69;;;11.17;73.30
27643;BME280;15053;48.618;10.024;2022-12-24T13:00:27;94279.75;;;11.23;73.40
27643;BME280;15053;48.618;10.024;2022-12-24T13:06:25;94279.91;;;11.26;73.13
27643;BME280;15053;48.618;10.024;2022-12-24T13:09:04;94280.22;;;11.25;72.48
27643;BME280;15053;48.618;10.024;2022-12-24T13:14:30;94288.72;;;11.17;72.06
27643;BME280;15053;48.618;10.024;2022-12-24T13:20:17;94298.44;;;10.98;71.09
27643;BME280;15053;48.618;10.024;2022-12-24T13:25:46;94290.31;;;10.86;71.49
27643;BME280;15053;48.618;10.024;2022-12-24T13:30:53;94294.56;;;10.82;71.29
27643;BME280;15053;48.618;10.024;2022-12-24T13:38:55;94296.16;;;10.78;70.88
27643;BME280;15053;48.618;10.024;2022-12-24T13:46:56;94293.09;;;10.76;71.18
27643;BME280;15053;48.618;10.024;2022-12-24T13:49:37;94296.25;;;10.73;70.80
27643;BME280;15053;48.618;10.024;2022-12-24T13:54:40;94294.53;;;10.68;71.73
27643;BME280;15053;48.618;10.024;2022-12-24T13:57:34;94302.59;;;10.66;72.18
27643;BME280;15053;48.618;10.024;2022-12-24T14:02:48;94290.25;;;10.58;71.96
27643;BME280;15053;48.618;10.024;2022-12-24T14:07:52;94306.16;;;10.57;72.71
27643;BME280;15053;48.618;10.024;2022-12-24T14:10:27;94305.66;;;10.55;72.08
27643;BME280;15053;48.618;10.024;2022-12-24T14:12:55;94307.00;;;10.52;72.44
27643;BME280;15053;48.618;10.024;2022-12-24T14:18:17;94302.94;;;10.46;72.66
27643;BME280;15053;48.618;10.024;2022-12-24T14:20:50;94296.97;;;10.46;72.74
27643;BME280;15053;48.618;10.024;2022-12-24T14:23:32;94300.81;;;10.48;73.89
27643;BME280;15053;48.618;10.024;2022-12-24T14:26:02;94302.16;;;10.46;74.69
27643;BME280;15053;48.618;10.024;2022-12-24T14:28:34;94296.19;;;10.45;76.14
27643;BME280;15053;48.618;10.024;2022-12-24T14:31:05;94289.72;;;10.43;77.43
27643;BME280;15053;48.618;10.024;2022-12-24T14:33:39;94296.25;;;10.40;78.65
27643;BME280;15053;48.618;10.024;2022-12-24T14:36:06;94293.16;;;10.38;79.56
27643;BME280;15053;48.618;10.024;2022-12-24T14:38:33;94292.66;;;10.36;80.81
27643;BME280;15053;48.618;10.024;2022-12-24T14:41:34;94302.59;;;10.34;81.64